Time;durP1;ratioP1;P1;durP2;ratioP2;P2;SDS_P1;SDS_P2;PMS_P1;PMS_P2;Temp;Humidity;BMP_temperature;BMP_pressure;BME280_temperature;BME280_humidity;BME280_pressure;Samples;Min_cycle;Max_cycle;Signal;HPM_P1;HPM_P2
2021/01/05 00:00:55;;;;;;;56.30;16.02;;;;;;;;;;8103260;28;20073;-75
2021/01/05 00:04:58;;;;;;;58.95;17.27;;;;;;;;;;8104630;28;20418;-75
2021/01/05 00:09:01;;;;;;;41.88;15.43;;;;;;;;;;8104143;28;20414;-75
2021/01/05 00:13:04;;;;;;;54.33;16.25;;;;;;;;;;8105143;28;20043;-74
2021/01/05 00:17:09;;;;;;;67.80;16.17;;;;;;;;;;8104747;28;20470;-74
2021/01/05 00:21:12;;;;;;;74.32;15.52;;;;;;;;;;8103696;28;20417;-74
2021/01/05 00:25:19;;;;;;;72.82;16.48;;;;;;;;;;8104511;28;20382;-74
2021/01/05 00:29:22;;;;;;;68.25;17.98;;;;;;;;;;8104313;28;20497;-74
2021/01/05 00:33:25;;;;;;;47.25;13.82;;;;;;;;;;8102715;28;20047;-75
2021/01/05 00:37:30;;;;;;;45.58;15.85;;;;;;;;;;8104218;28;20067;-74
2021/01/05 00:41:33;;;;;;;65.00;16.38;;;;;;;;;;8102672;28;20567;-74
2021/01/05 00:45:40;;;;;;;38.92;15.18;;;;;;;;;;8103684;28;20467;-74
2021/01/05 00:49:42;;;;;;;53.70;16.17;;;;;;;;;;8100422;28;20085;-74
2021/01/05 00:53:46;;;;;;;62.45;14.90;;;;;;;;;;8102600;28;20454;-75
2021/01/05 00:57:49;;;;;;;61.35;16.55;;;;;;;;;;8101627;28;20106;-74
2021/01/05 01:01:57;;;;;;;43.83;14.98;;;;;;;;;;8101177;28;20050;-74
2021/01/05 01:06:09;;;;;;;59.00;15.05;;;;;;;;;;8084557;28;20051;-74
2021/01/05 01:10:14;;;;;;;56.58;16.38;;;;;;;;;;8103048;28;20678;-74
2021/01/05 01:14:18;;;;;;;63.10;14.90;;;;;;;;;;8086794;28;20390;-74
2021/01/05 01:18:21;;;;;;;71.60;16.45;;;;;;;;;;8100703;28;20046;-74
2021/01/05 01:22:26;;;;;;;46.63;15.80;;;;;;;;;;8101269;28;20047;-75
2021/01/05 01:26:42;;;;;;;51.08;15.68;;;;;;;;;;8103775;28;20462;-75
2021/01/05 01:30:47;;;;;;;48.78;15.57;;;;;;;;;;8086844;28;20367;-74
2021/01/05 01:34:54;;;;;;;42.47;15.02;;;;;;;;;;8086460;28;20508;-74
2021/01/05 01:39:01;;;;;;;55.05;16.20;;;;;;;;;;8102861;28;20486;-74
2021/01/05 01:43:06;;;;;;;49.17;14.63;;;;;;;;;;8090351;28;20485;-74
2021/01/05 01:47:20;;;;;;;38.63;15.32;;;;;;;;;;8106103;28;20454;-75
2021/01/05 01:51:24;;;;;;;47.85;14.43;;;;;;;;;;8088964;28;20382;-75
2021/01/05 01:55:53;;;;;;;52.95;15.63;;;;;;;;;;8074978;28;20462;-75
2021/01/05 02:00:11;;;;;;;47.10;16.08;;;;;;;;;;8107696;28;20046;-75
2021/01/05 02:04:52;;;;;;;42.60;13.70;;;;;;;;;;8106722;28;20390;-75
2021/01/05 02:09:26;;;;;;;39.15;14.02;;;;;;;;;;8106643;28;20469;-75
2021/01/05 02:14:02;;;;;;;29.98;13.30;;;;;;;;;;8106433;28;20450;-75
2021/01/05 02:18:44;;;;;;;29.88;13.77;;;;;;;;;;8106905;28;20486;-75
2021/01/05 02:23:31;;;;;;;30.67;12.93;;;;;;;;;;8105682;28;20496;-75
2021/01/05 02:27:45;;;;;;;23.45;11.40;;;;;;;;;;8106305;28;20481;-77
2021/01/05 02:33:02;;;;;;;22.05;11.02;;;;;;;;;;8091307;28;20165;-77
2021/01/05 02:37:27;;;;;;;19.73;9.93;;;;;;;;;;8077978;28;20571;-77
2021/01/05 02:42:11;;;;;;;23.05;9.98;;;;;;;;;;8100892;28;20162;-77
2021/01/05 02:46:58;;;;;;;14.95;7.68;;;;;;;;;;8106465;28;20682;-77
2021/01/05 02:51:50;;;;;;;14.82;8.65;;;;;;;;;;8105827;28;20074;-76
2021/01/05 02:56:29;;;;;;;14.98;8.68;;;;;;;;;;8108349;28;20398;-77
2021/01/05 03:01:29;;;;;;;14.35;7.55;;;;;;;;;;8090811;28;20062;-77
2021/01/05 03:06:32;;;;;;;13.70;7.55;;;;;;;;;;8147913;28;20508;-76
2021/01/05 03:11:03;;;;;;;14.95;7.75;;;;;;;;;;8106411;28;20051;-76
2021/01/05 03:15:38;;;;;;;10.48;6.07;;;;;;;;;;8105207;28;20094;-76
2021/01/05 03:20:02;;;;;;;11.45;6.70;;;;;;;;;;8106904;28;20493;-76
2021/01/05 03:24:26;;;;;;;10.32;6.40;;;;;;;;;;8105625;28;20051;-76
2021/01/05 03:28:49;;;;;;;8.88;5.43;;;;;;;;;;8105433;28;20510;-76
2021/01/05 03:33:11;;;;;;;8.60;4.90;;;;;;;;;;8105760;28;20500;-76
2021/01/05 03:37:33;;;;;;;8.23;4.60;;;;;;;;;;8104619;28;20393;-76
2021/01/05 03:41:55;;;;;;;8.35;4.72;;;;;;;;;;8105164;28;20521;-76
2021/01/05 03:46:17;;;;;;;12.35;5.15;;;;;;;;;;8105517;28;20482;-76
2021/01/05 03:50:47;;;;;;;8.85;5.05;;;;;;;;;;8110706;28;20047;-76
2021/01/05 03:55:25;;;;;;;8.35;4.80;;;;;;;;;;8125275;28;20426;-76
2021/01/05 03:59:47;;;;;;;10.60;4.68;;;;;;;;;;8104949;28;20427;-76
2021/01/05 04:04:09;;;;;;;9.02;5.38;;;;;;;;;;8103094;28;20530;-76
2021/01/05 04:08:13;;;;;;;9.32;5.45;;;;;;;;;;8104636;28;20105;-76
2021/01/05 04:12:15;;;;;;;7.50;5.28;;;;;;;;;;8104349;28;20487;-76
2021/01/05 04:16:18;;;;;;;10.55;7.00;;;;;;;;;;8104513;28;20359;-76
2021/01/05 04:20:23;;;;;;;9.60;5.15;;;;;;;;;;8104481;28;20379;-76
2021/01/05 04:24:27;;;;;;;6.40;3.72;;;;;;;;;;8102066;28;20462;-76
2021/01/05 04:28:30;;;;;;;6.78;3.67;;;;;;;;;;8102082;28;20047;-76
2021/01/05 04:32:33;;;;;;;6.18;3.75;;;;;;;;;;8104931;28;20046;-75
2021/01/05 04:36:36;;;;;;;4.68;3.05;;;;;;;;;;8100840;28;20236;-76
2021/01/05 04:40:46;;;;;;;8.00;3.38;;;;;;;;;;8104330;28;20377;-75
2021/01/05 04:45:19;;;;;;;5.10;2.67;;;;;;;;;;8102342;28;20081;-76
2021/01/05 04:49:38;;;;;;;4.35;2.88;;;;;;;;;;8103776;28;20386;-76
2021/01/05 04:53:50;;;;;;;6.63;2.38;;;;;;;;;;8101874;28;20551;-76
2021/01/05 04:58:22;;;;;;;5.32;2.83;;;;;;;;;;8088305;28;20648;-76
2021/01/05 05:02:30;;;;;;;6.95;2.83;;;;;;;;;;8149253;28;20047;-76
2021/01/05 05:07:12;;;;;;;5.57;2.50;;;;;;;;;;8133305;28;20068;-75
2021/01/05 05:11:19;;;;;;;3.47;2.33;;;;;;;;;;8148863;28;20092;-75
2021/01/05 05:16:02;;;;;;;3.95;2.47;;;;;;;;;;8135278;28;20381;-76
2021/01/05 05:20:34;;;;;;;4.82;2.30;;;;;;;;;;8008296;28;20046;-76
2021/01/05 05:24:58;;;;;;;4.93;2.63;;;;;;;;;;8088975;28;20109;-76
2021/01/05 05:29:15;;;;;;;3.00;1.70;;;;;;;;;;8141420;28;20566;-76
2021/01/05 05:33:31;;;;;;;4.78;2.60;;;;;;;;;;8139741;28;20354;-76
2021/01/05 05:38:29;;;;;;;3.22;2.10;;;;;;;;;;8138882;28;20382;-76
2021/01/05 05:43:01;;;;;;;;;;;;;;;;;;8140463;28;20385;-76
2021/01/05 05:47:25;;;;;;;2.65;1.98;;;;;;;;;;8140449;28;20273;-76
2021/01/05 05:51:42;;;;;;;4.13;2.20;;;;;;;;;;8140102;28;20378;-75
2021/01/05 05:56:01;;;;;;;2.67;1.42;;;;;;;;;;8138078;28;20542;-76
2021/01/05 06:00:35;;;;;;;2.95;1.80;;;;;;;;;;8140651;28;20500;-77
2021/01/05 06:04:38;;;;;;;2.45;1.52;;;;;;;;;;8138655;28;20381;-76
2021/01/05 06:08:41;;;;;;;3.10;1.90;;;;;;;;;;8139611;28;20381;-76
2021/01/05 06:12:45;;;;;;;3.42;1.65;;;;;;;;;;8138930;28;20429;-76
2021/01/05 06:16:49;;;;;;;3.47;1.65;;;;;;;;;;8136496;28;20540;-75
2021/01/05 06:20:52;;;;;;;2.80;1.58;;;;;;;;;;8073078;28;20046;-76
2021/01/05 06:24:55;;;;;;;4.13;2.10;;;;;;;;;;8138023;28;20424;-77
2021/01/05 06:28:58;;;;;;;4.85;1.90;;;;;;;;;;8151223;28;20462;-76
2021/01/05 06:33:02;;;;;;;4.30;1.70;;;;;;;;;;8139108;28;20393;-76
2021/01/05 06:37:05;;;;;;;2.78;1.58;;;;;;;;;;8138665;28;20485;-76
2021/01/05 06:41:08;;;;;;;2.08;1.30;;;;;;;;;;8105402;28;20382;-76
2021/01/05 06:45:18;;;;;;;2.72;1.60;;;;;;;;;;8135767;28;20369;-76
2021/01/05 06:49:21;;;;;;;2.47;1.50;;;;;;;;;;8137362;28;20385;-76
2021/01/05 06:53:24;;;;;;;3.95;1.67;;;;;;;;;;8138441;28;20468;-77
2021/01/05 06:57:27;;;;;;;2.80;1.20;;;;;;;;;;8137051;28;20393;-77
2021/01/05 07:01:30;;;;;;;3.33;1.25;;;;;;;;;;8137017;28;20462;-76
2021/01/05 07:05:33;;;;;;;3.92;1.48;;;;;;;;;;8134683;28;20090;-76
2021/01/05 07:09:36;;;;;;;3.45;1.92;;;;;;;;;;8097030;28;609527;-76
2021/01/05 07:13:40;;;;;;;3.65;2.10;;;;;;;;;;8137986;28;20485;-76
2021/01/05 07:17:43;;;;;;;2.47;1.50;;;;;;;;;;8100126;28;20381;-76
2021/01/05 07:21:46;;;;;;;3.53;1.85;;;;;;;;;;8084739;28;20062;-77
2021/01/05 07:25:50;;;;;;;6.68;3.58;;;;;;;;;;8101132;28;20058;-76
2021/01/05 07:29:53;;;;;;;18.30;9.07;;;;;;;;;;8084603;28;20508;-76
2021/01/05 07:33:56;;;;;;;24.92;12.40;;;;;;;;;;8101147;28;20375;-76
2021/01/05 07:38:00;;;;;;;5.35;3.33;;;;;;;;;;8099825;28;20486;-76
2021/01/05 07:42:17;;;;;;;4.47;2.00;;;;;;;;;;8099666;28;20062;-76
2021/01/05 07:46:21;;;;;;;13.37;3.77;;;;;;;;;;8103325;28;20379;-76
2021/01/05 07:50:26;;;;;;;4.70;2.42;;;;;;;;;;8135769;28;20054;-76
2021/01/05 07:54:34;;;;;;;34.55;13.30;;;;;;;;;;8120179;28;20489;-76
2021/01/05 07:58:38;;;;;;;62.60;22.98;;;;;;;;;;8134451;28;20416;-76
2021/01/05 08:02:41;;;;;;;66.18;22.63;;;;;;;;;;8133993;28;20449;-76
2021/01/05 08:06:43;;;;;;;19.98;10.73;;;;;;;;;;8136654;28;20397;-76
2021/01/05 08:10:46;;;;;;;27.17;10.13;;;;;;;;;;8137062;28;20389;-77
2021/01/05 08:14:49;;;;;;;486.85;219.57;;;;;;;;;;8137215;28;20469;-76
2021/01/05 08:18:53;;;;;;;548.88;250.75;;;;;;;;;;8135050;28;20357;-76
2021/01/05 08:22:57;;;;;;;495.60;211.07;;;;;;;;;;8135990;28;20440;-76
2021/01/05 08:27:00;;;;;;;693.00;348.05;;;;;;;;;;8136722;28;20611;-76
2021/01/05 08:31:03;;;;;;;71.47;39.05;;;;;;;;;;8135771;28;20653;-76
2021/01/05 08:35:08;;;;;;;35.05;22.35;;;;;;;;;;8136797;28;20543;-76
2021/01/05 08:39:13;;;;;;;14.50;7.57;;;;;;;;;;8136571;28;20651;-76
2021/01/05 08:43:16;;;;;;;15.95;6.00;;;;;;;;;;8134862;28;20369;-76
2021/01/05 08:47:20;;;;;;;7.53;5.18;;;;;;;;;;8133156;28;20408;-76
2021/01/05 08:51:23;;;;;;;28.27;11.05;;;;;;;;;;8101296;28;20448;-76
2021/01/05 08:55:27;;;;;;;24.35;9.27;;;;;;;;;;8132090;28;20065;-76
2021/01/05 08:59:31;;;;;;;7.80;3.47;;;;;;;;;;8135393;28;20491;-76
2021/01/05 09:03:34;;;;;;;30.38;14.02;;;;;;;;;;8101882;28;20511;-76
2021/01/05 09:07:37;;;;;;;19.15;7.20;;;;;;;;;;8134046;28;20629;-76
2021/01/05 09:11:40;;;;;;;17.23;9.90;;;;;;;;;;8135679;28;20077;-75
2021/01/05 09:15:45;;;;;;;28.23;11.85;;;;;;;;;;8149061;28;20050;-77
2021/01/05 09:19:48;;;;;;;13.32;5.72;;;;;;;;;;8132780;28;20489;-76
2021/01/05 09:23:54;;;;;;;6.35;3.35;;;;;;;;;;8134715;28;20500;-76
2021/01/05 09:27:57;;;;;;;11.07;5.57;;;;;;;;;;8118714;28;20377;-76
2021/01/05 09:32:00;;;;;;;11.90;4.43;;;;;;;;;;8135231;28;20358;-76
2021/01/05 09:36:05;;;;;;;5.28;2.33;;;;;;;;;;8135058;28;20501;-75
2021/01/05 09:40:09;;;;;;;3.97;2.30;;;;;;;;;;8135130;28;20481;-75
2021/01/05 09:44:13;;;;;;;10.10;3.10;;;;;;;;;;8134143;28;20374;-76
2021/01/05 09:48:17;;;;;;;5.15;2.75;;;;;;;;;;8135445;28;20534;-76
2021/01/05 09:52:23;;;;;;;8.93;3.95;;;;;;;;;;8135053;28;20464;-76
2021/01/05 09:56:26;;;;;;;5.68;1.90;;;;;;;;;;8134736;28;20062;-76
2021/01/05 10:00:31;;;;;;;11.23;5.18;;;;;;;;;;8133444;28;20405;-76
2021/01/05 10:04:34;;;;;;;3.53;1.92;;;;;;;;;;8137962;28;20537;-76
2021/01/05 10:08:36;;;;;;;6.45;3.17;;;;;;;;;;8139621;28;20416;-76
2021/01/05 10:12:42;;;;;;;6.53;2.97;;;;;;;;;;8136636;28;20577;-75
2021/01/05 10:16:46;;;;;;;6.65;2.70;;;;;;;;;;8140821;28;20477;-75
2021/01/05 10:20:49;;;;;;;7.43;4.88;;;;;;;;;;8152404;28;20377;-76
2021/01/05 10:24:53;;;;;;;9.00;4.25;;;;;;;;;;8139012;28;20072;-76
2021/01/05 10:29:00;;;;;;;8.73;3.90;;;;;;;;;;8139698;28;20567;-76
2021/01/05 10:33:04;;;;;;;13.10;6.57;;;;;;;;;;8153280;28;20054;-75
2021/01/05 10:37:07;;;;;;;7.38;3.42;;;;;;;;;;8139131;28;20088;-76
2021/01/05 10:41:10;;;;;;;7.07;4.88;;;;;;;;;;8139994;28;20465;-77
2021/01/05 10:45:21;;;;;;;5.85;3.38;;;;;;;;;;8138001;28;20680;-76
2021/01/05 10:49:24;;;;;;;7.70;4.82;;;;;;;;;;8139236;28;20684;-77
2021/01/05 10:53:29;;;;;;;5.90;3.67;;;;;;;;;;8139206;28;20046;-77
2021/01/05 10:57:32;;;;;;;7.15;4.07;;;;;;;;;;8153810;28;20530;-77
2021/01/05 11:01:35;;;;;;;10.23;4.60;;;;;;;;;;8139199;28;20647;-77
2021/01/05 11:05:38;;;;;;;11.50;5.43;;;;;;;;;;8137683;28;20680;-75
2021/01/05 11:09:42;;;;;;;13.90;7.70;;;;;;;;;;8153201;28;20516;-76
2021/01/05 11:13:45;;;;;;;10.40;6.35;;;;;;;;;;8136491;28;20461;-76
2021/01/05 11:17:48;;;;;;;11.38;7.30;;;;;;;;;;8136948;28;20433;-75
2021/01/05 11:22:03;;;;;;;13.35;9.93;;;;;;;;;;8139450;28;20370;-76
2021/01/05 11:26:12;;;;;;;11.57;8.27;;;;;;;;;;8137292;28;20054;-76
2021/01/05 11:30:28;;;;;;;9.63;5.55;;;;;;;;;;8127043;28;20369;-75
2021/01/05 11:34:31;;;;;;;11.43;5.78;;;;;;;;;;8139336;28;20359;-76
2021/01/05 11:38:33;;;;;;;36.95;23.45;;;;;;;;;;8136825;28;20409;-75
2021/01/05 11:42:49;;;;;;;17.08;13.23;;;;;;;;;;8122110;28;20450;-76
2021/01/05 11:46:52;;;;;;;17.65;13.85;;;;;;;;;;8135870;28;20626;-75
2021/01/05 11:50:55;;;;;;;14.50;10.57;;;;;;;;;;8135755;28;20444;-76
2021/01/05 11:54:59;;;;;;;42.10;36.47;;;;;;;;;;8134356;28;20271;-75
2021/01/05 11:59:04;;;;;;;13.27;8.35;;;;;;;;;;8053138;29;20536;-76
2021/01/05 12:03:08;;;;;;;21.90;16.77;;;;;;;;;;8053200;29;20498;-75
2021/01/05 12:07:11;;;;;;;9.15;4.97;;;;;;;;;;8068202;29;20532;-76
2021/01/05 12:11:31;;;;;;;12.63;7.88;;;;;;;;;;8051817;29;20459;-75
2021/01/05 12:15:34;;;;;;;41.80;31.02;;;;;;;;;;8037406;29;20624;-75
2021/01/05 12:19:40;;;;;;;261.58;181.90;;;;;;;;;;8067340;29;20472;-75
2021/01/05 12:23:45;;;;;;;105.72;51.05;;;;;;;;;;8051600;28;20554;-75
2021/01/05 12:27:48;;;;;;;334.17;160.30;;;;;;;;;;8090596;28;20503;-75
2021/01/05 12:32:11;;;;;;;188.40;79.13;;;;;;;;;;8135123;28;20397;-75
2021/01/05 12:36:29;;;;;;;149.68;63.90;;;;;;;;;;8134647;28;20398;-76
2021/01/05 12:40:32;;;;;;;166.45;64.80;;;;;;;;;;8136434;28;20160;-75
2021/01/05 12:44:35;;;;;;;87.22;39.53;;;;;;;;;;8136052;28;20058;-75
2021/01/05 12:48:39;;;;;;;191.90;75.32;;;;;;;;;;8132428;28;20050;-75
2021/01/05 12:52:42;;;;;;;79.05;37.70;;;;;;;;;;8136840;28;20458;-77
2021/01/05 12:56:45;;;;;;;94.85;51.78;;;;;;;;;;8133015;28;20484;-75
2021/01/05 13:00:48;;;;;;;56.97;32.53;;;;;;;;;;8133840;28;20574;-76
2021/01/05 13:04:51;;;;;;;59.83;32.67;;;;;;;;;;8130878;28;20065;-76
2021/01/05 13:08:54;;;;;;;112.88;53.33;;;;;;;;;;8128679;28;20551;-76
2021/01/05 13:12:58;;;;;;;95.43;46.03;;;;;;;;;;8103664;28;20590;-76
2021/01/05 13:17:01;;;;;;;90.07;47.67;;;;;;;;;;8086060;28;20299;-76
2021/01/05 13:21:04;;;;;;;67.30;38.53;;;;;;;;;;8099371;28;20446;-76
2021/01/05 13:25:11;;;;;;;74.88;44.40;;;;;;;;;;8103602;28;20504;-76
2021/01/05 13:29:17;;;;;;;37.45;24.23;;;;;;;;;;8109985;28;20385;-76
2021/01/05 13:33:20;;;;;;;20.05;13.43;;;;;;;;;;8085567;28;20373;-76
2021/01/05 13:37:24;;;;;;;18.63;10.40;;;;;;;;;;8137265;28;20359;-76
2021/01/05 13:41:34;;;;;;;17.13;10.20;;;;;;;;;;8141032;28;20542;-76
2021/01/05 13:45:37;;;;;;;17.05;8.27;;;;;;;;;;8137245;28;20413;-76
2021/01/05 13:49:40;;;;;;;21.95;10.18;;;;;;;;;;8138395;28;20084;-76
2021/01/05 13:53:44;;;;;;;24.60;11.60;;;;;;;;;;8132496;28;20363;-76
2021/01/05 13:57:48;;;;;;;21.67;11.35;;;;;;;;;;8137326;28;20054;-76
2021/01/05 14:02:00;;;;;;;27.58;12.38;;;;;;;;;;8122932;28;20476;-75
2021/01/05 14:06:03;;;;;;;26.60;11.02;;;;;;;;;;8172214;28;20464;-75
2021/01/05 14:10:09;;;;;;;22.48;11.07;;;;;;;;;;8169106;28;20642;-76
2021/01/05 14:14:12;;;;;;;38.47;16.70;;;;;;;;;;8164556;28;20465;-75
2021/01/05 14:18:16;;;;;;;37.38;16.15;;;;;;;;;;8149773;28;20489;-75
2021/01/05 14:22:20;;;;;;;33.83;14.43;;;;;;;;;;8175588;28;20037;-75
2021/01/05 14:26:24;;;;;;;23.80;11.48;;;;;;;;;;8156889;28;20384;-74
2021/01/05 14:30:28;;;;;;;22.33;11.45;;;;;;;;;;8166106;28;20503;-75
2021/01/05 14:34:33;;;;;;;24.17;10.23;;;;;;;;;;8127141;28;20373;-76
2021/01/05 14:38:36;;;;;;;31.70;14.40;;;;;;;;;;8148394;28;20088;-75
2021/01/05 14:42:39;;;;;;;24.40;10.18;;;;;;;;;;8157852;28;20527;-75
2021/01/05 14:46:42;;;;;;;22.08;10.38;;;;;;;;;;8143159;28;20458;-75
2021/01/05 14:50:46;;;;;;;24.80;12.43;;;;;;;;;;8143566;28;20073;-77
2021/01/05 14:54:53;;;;;;;26.58;12.60;;;;;;;;;;8145396;28;20465;-75
2021/01/05 14:58:58;;;;;;;46.88;24.38;;;;;;;;;;8141298;28;20444;-77
2021/01/05 15:03:01;;;;;;;50.45;26.73;;;;;;;;;;8124486;28;20073;-77
2021/01/05 15:07:05;;;;;;;297.85;126.47;;;;;;;;;;8147429;28;20378;-76
2021/01/05 15:11:08;;;;;;;548.88;304.08;;;;;;;;;;8144395;28;20098;-76
2021/01/05 15:15:13;;;;;;;80.38;33.97;;;;;;;;;;8142024;28;20380;-76
2021/01/05 15:19:21;;;;;;;144.82;57.63;;;;;;;;;;8143876;28;20046;-76
2021/01/05 15:23:25;;;;;;;77.22;32.10;;;;;;;;;;8145582;28;20425;-76
2021/01/05 15:27:29;;;;;;;95.28;36.90;;;;;;;;;;8158191;28;20481;-76
2021/01/05 15:31:45;;;;;;;158.57;62.30;;;;;;;;;;8141010;28;20054;-76
2021/01/05 15:35:48;;;;;;;55.50;28.08;;;;;;;;;;8144886;28;20490;-77
2021/01/05 15:39:52;;;;;;;101.30;53.85;;;;;;;;;;8111980;28;20458;-75
2021/01/05 15:43:55;;;;;;;28.92;13.45;;;;;;;;;;8139192;28;20554;-77
2021/01/05 15:47:58;;;;;;;30.55;15.88;;;;;;;;;;8140288;28;20381;-77
2021/01/05 15:52:02;;;;;;;63.03;39.53;;;;;;;;;;8140560;28;20068;-76
2021/01/05 15:56:05;;;;;;;41.50;24.95;;;;;;;;;;8145095;28;20492;-77
2021/01/05 16:00:14;;;;;;;37.03;20.52;;;;;;;;;;8141618;28;20385;-76
2021/01/05 16:04:17;;;;;;;;;;;;;;;;;;8144502;28;20065;-75
2021/01/05 16:08:20;;;;;;;38.42;17.70;;;;;;;;;;8142850;28;20289;-76
2021/01/05 16:12:23;;;;;;;81.75;45.60;;;;;;;;;;8145143;28;20418;-76
2021/01/05 16:16:28;;;;;;;38.72;16.27;;;;;;;;;;8143443;28;20500;-75
2021/01/05 16:20:31;;;;;;;43.95;15.80;;;;;;;;;;8139955;28;20485;-77
2021/01/05 16:24:34;;;;;;;153.55;64.05;;;;;;;;;;8138572;28;20394;-75
2021/01/05 16:28:40;;;;;;;76.05;37.88;;;;;;;;;;8138210;28;20062;-77
2021/01/05 16:32:43;;;;;;;62.33;28.30;;;;;;;;;;8139977;28;20050;-76
2021/01/05 16:36:46;;;;;;;40.90;19.45;;;;;;;;;;8138994;28;20065;-77
2021/01/05 16:40:50;;;;;;;93.00;39.30;;;;;;;;;;8137261;28;20046;-77
2021/01/05 16:44:53;;;;;;;69.07;30.95;;;;;;;;;;8145084;28;20618;-76
2021/01/05 16:49:29;;;;;;;89.13;43.60;;;;;;;;;;8135962;28;20665;-76
2021/01/05 16:53:32;;;;;;;92.93;39.65;;;;;;;;;;8128973;28;20527;-76
2021/01/05 16:57:38;;;;;;;548.42;257.77;;;;;;;;;;8120187;28;20390;-76
2021/01/05 17:01:47;;;;;;;74.55;30.45;;;;;;;;;;8131408;28;20502;-76
2021/01/05 17:05:52;;;;;;;103.72;44.67;;;;;;;;;;8119599;28;20486;-77
2021/01/05 17:09:56;;;;;;;105.78;46.03;;;;;;;;;;8096119;28;20370;-75
2021/01/05 17:14:00;;;;;;;102.15;49.22;;;;;;;;;;8129322;28;20482;-77
2021/01/05 17:18:05;;;;;;;67.05;31.38;;;;;;;;;;8080724;28;20478;-76
2021/01/05 17:22:12;;;;;;;85.65;42.50;;;;;;;;;;8085321;29;20427;-76
2021/01/05 17:26:25;;;;;;;82.00;40.42;;;;;;;;;;8102816;28;20485;-76
2021/01/05 17:30:33;;;;;;;317.60;119.88;;;;;;;;;;8089074;28;20054;-76
2021/01/05 17:36:22;;;;;;;93.93;50.47;;;;;;;;;;8110011;28;20414;-76
2021/01/05 17:40:34;;;;;;;277.98;105.45;;;;;;;;;;8109753;28;20653;-75
2021/01/05 17:44:38;;;;;;;332.63;115.88;;;;;;;;;;8513595;23;20649;-75
2021/01/05 17:48:41;;;;;;;73.53;34.15;;;;;;;;;;8110314;28;20415;-75
2021/01/05 17:52:45;;;;;;;155.43;64.45;;;;;;;;;;8141285;28;20388;-73
2021/01/05 17:56:48;;;;;;;371.35;166.05;;;;;;;;;;8166548;28;20468;-76
2021/01/05 18:00:51;;;;;;;476.92;154.88;;;;;;;;;;8504594;22;20513;-80
2021/01/05 18:05:14;;;;;;;248.52;76.65;;;;;;;;;;8282377;22;20028;31
2021/01/05 18:09:17;;;;;;;203.65;61.10;;;;;;;;;;8152268;28;20373;-74
2021/01/05 18:13:20;;;;;;;154.55;48.90;;;;;;;;;;8178486;22;20375;-72
2021/01/05 18:17:24;;;;;;;136.30;38.80;;;;;;;;;;8145178;28;20460;-72
2021/01/05 18:21:39;;;;;;;117.18;55.47;;;;;;;;;;8144103;28;20645;-72
2021/01/05 18:25:42;;;;;;;71.28;33.88;;;;;;;;;;8196169;28;20076;-72
2021/01/05 18:29:45;;;;;;;125.05;34.75;;;;;;;;;;8194052;28;20502;-72
2021/01/05 18:33:48;;;;;;;90.43;35.63;;;;;;;;;;8175458;28;20467;-72
2021/01/05 18:37:53;;;;;;;85.82;32.78;;;;;;;;;;8183838;28;20452;-71
2021/01/05 18:41:57;;;;;;;61.55;25.63;;;;;;;;;;8167098;28;20383;-72
2021/01/05 18:46:02;;;;;;;65.10;28.70;;;;;;;;;;8186599;28;20046;-72
2021/01/05 18:50:20;;;;;;;62.90;31.98;;;;;;;;;;8143733;28;20053;-72
2021/01/05 18:54:25;;;;;;;323.70;131.68;;;;;;;;;;8193867;28;20216;-72
2021/01/05 18:58:29;;;;;;;72.93;33.95;;;;;;;;;;8175264;28;20365;-72
2021/01/05 19:02:32;;;;;;;84.75;35.42;;;;;;;;;;8190250;28;20426;-72
2021/01/05 19:06:38;;;;;;;66.22;31.90;;;;;;;;;;8159859;28;20592;-73
2021/01/05 19:10:44;;;;;;;84.95;35.40;;;;;;;;;;8162418;28;20505;-71
2021/01/05 19:14:48;;;;;;;73.10;29.80;;;;;;;;;;8174309;28;20045;-72
2021/01/05 19:18:53;;;;;;;81.53;36.17;;;;;;;;;;8176318;28;20529;-72
2021/01/05 19:22:58;;;;;;;92.90;50.08;;;;;;;;;;8158297;28;20085;-72
2021/01/05 19:27:01;;;;;;;45.10;22.00;;;;;;;;;;8192656;28;20391;-72
2021/01/05 19:31:04;;;;;;;45.50;21.73;;;;;;;;;;8172191;28;20464;-72
2021/01/05 19:35:22;;;;;;;101.38;35.70;;;;;;;;;;8151693;28;20493;-72
2021/01/05 19:39:25;;;;;;;118.13;29.02;;;;;;;;;;8157841;28;20487;-72
2021/01/05 19:43:28;;;;;;;1277.30;421.02;;;;;;;;;;8191434;28;20076;-73
2021/01/05 19:47:31;;;;;;;1999.90;689.78;;;;;;;;;;8137450;28;20047;-72
2021/01/05 19:51:36;;;;;;;1999.90;631.88;;;;;;;;;;8156785;28;20042;-72
2021/01/05 19:55:40;;;;;;;902.00;253.25;;;;;;;;;;8136435;28;20479;-72
2021/01/05 19:59:46;;;;;;;1312.00;282.35;;;;;;;;;;8166157;28;20479;-71
2021/01/05 20:03:49;;;;;;;850.47;153.52;;;;;;;;;;8155350;28;20296;-71
2021/01/05 20:07:55;;;;;;;109.50;33.42;;;;;;;;;;8153258;28;20412;-72
2021/01/05 20:12:01;;;;;;;418.83;75.45;;;;;;;;;;8164845;28;20495;-73
2021/01/05 20:16:05;;;;;;;128.68;31.15;;;;;;;;;;8188712;28;20354;-73
2021/01/05 20:20:10;;;;;;;395.73;61.83;;;;;;;;;;8178140;28;20468;-73
2021/01/05 20:24:14;;;;;;;378.15;63.53;;;;;;;;;;8157617;28;20042;-73
2021/01/05 20:28:23;;;;;;;487.10;83.25;;;;;;;;;;8156438;28;20502;-73
2021/01/05 20:32:26;;;;;;;558.08;92.80;;;;;;;;;;8146500;28;20375;-72
2021/01/05 20:36:30;;;;;;;369.98;61.78;;;;;;;;;;8156640;28;20452;-73
2021/01/05 20:40:42;;;;;;;468.50;73.68;;;;;;;;;;8175868;28;20050;-71
2021/01/05 20:45:05;;;;;;;481.88;89.65;;;;;;;;;;8185683;28;20038;-74
2021/01/05 20:49:09;;;;;;;415.33;82.72;;;;;;;;;;8165947;28;20480;-73
2021/01/05 20:53:12;;;;;;;517.72;101.32;;;;;;;;;;8118331;28;20397;-72
2021/01/05 20:57:18;;;;;;;231.60;50.40;;;;;;;;;;8090801;28;20080;-73
2021/01/05 21:01:41;;;;;;;389.30;73.75;;;;;;;;;;8114423;28;20066;-71
2021/01/05 21:05:44;;;;;;;472.33;95.07;;;;;;;;;;8117343;28;20358;-72
2021/01/05 21:09:48;;;;;;;523.05;102.88;;;;;;;;;;8121928;28;20073;-72
2021/01/05 21:13:50;;;;;;;316.67;58.88;;;;;;;;;;8042971;28;20402;-73
2021/01/05 21:17:55;;;;;;;414.00;79.85;;;;;;;;;;8104288;28;20454;-73
2021/01/05 21:22:04;;;;;;;411.95;78.05;;;;;;;;;;8109425;28;20353;-71
2021/01/05 21:26:09;;;;;;;350.65;68.93;;;;;;;;;;8135591;28;20411;-72
2021/01/05 21:30:19;;;;;;;239.48;50.67;;;;;;;;;;8139717;28;20456;-72
2021/01/05 21:34:23;;;;;;;319.98;60.65;;;;;;;;;;8136495;28;20488;-73
2021/01/05 21:38:27;;;;;;;334.70;59.33;;;;;;;;;;8135595;28;20504;-73
2021/01/05 21:42:31;;;;;;;90.88;22.50;;;;;;;;;;8156745;28;20054;-72
2021/01/05 21:46:35;;;;;;;227.25;43.67;;;;;;;;;;8140955;28;20358;-72
2021/01/05 21:50:41;;;;;;;223.75;41.83;;;;;;;;;;8156991;28;20453;-72
2021/01/05 21:54:45;;;;;;;349.23;58.83;;;;;;;;;;8159004;28;20456;-73
2021/01/05 21:58:48;;;;;;;215.75;39.25;;;;;;;;;;8158934;28;20480;-72
2021/01/05 22:02:51;;;;;;;385.50;62.88;;;;;;;;;;8159820;28;20350;-72
2021/01/05 22:06:54;;;;;;;289.38;50.10;;;;;;;;;;8131598;28;20484;-74
2021/01/05 22:10:57;;;;;;;179.95;37.65;;;;;;;;;;8138215;28;20054;-73
2021/01/05 22:15:00;;;;;;;184.45;35.45;;;;;;;;;;8151640;28;20375;-73
2021/01/05 22:19:03;;;;;;;221.68;42.17;;;;;;;;;;8160583;28;20403;-74
2021/01/05 22:23:16;;;;;;;152.13;30.00;;;;;;;;;;8173504;28;20387;-73
2021/01/05 22:27:21;;;;;;;124.78;27.67;;;;;;;;;;8130645;28;20483;-73
2021/01/05 22:31:24;;;;;;;129.20;28.27;;;;;;;;;;8145878;28;20382;-73
2021/01/05 22:35:32;;;;;;;127.32;27.95;;;;;;;;;;8162313;28;20471;-73
2021/01/05 22:39:36;;;;;;;185.50;35.22;;;;;;;;;;8162734;28;20384;-73
2021/01/05 22:43:41;;;;;;;159.70;35.70;;;;;;;;;;8163013;28;20391;-73
2021/01/05 22:47:44;;;;;;;78.53;22.20;;;;;;;;;;8163294;28;20413;-73
2021/01/05 22:51:50;;;;;;;63.20;18.88;;;;;;;;;;8161599;28;20506;-73
2021/01/05 22:55:55;;;;;;;37.72;14.98;;;;;;;;;;8129137;28;20046;-73
2021/01/05 22:59:59;;;;;;;120.97;28.63;;;;;;;;;;8129425;28;20484;-73
2021/01/05 23:04:02;;;;;;;98.78;26.33;;;;;;;;;;8144900;28;20575;-73
2021/01/05 23:08:12;;;;;;;138.48;33.10;;;;;;;;;;8161425;28;20412;-73
2021/01/05 23:12:17;;;;;;;91.93;27.83;;;;;;;;;;8145274;28;20050;-73
2021/01/05 23:16:23;;;;;;;102.00;28.63;;;;;;;;;;8161701;28;20376;-73
2021/01/05 23:20:28;;;;;;;123.93;34.03;;;;;;;;;;8160815;28;20407;-73
2021/01/05 23:24:33;;;;;;;158.80;45.58;;;;;;;;;;8145444;28;20365;-73
2021/01/05 23:28:36;;;;;;;100.55;31.20;;;;;;;;;;8162269;28;20484;-73
2021/01/05 23:32:39;;;;;;;133.23;37.75;;;;;;;;;;8144472;28;20388;-73
2021/01/05 23:36:55;;;;;;;120.88;37.85;;;;;;;;;;8160865;28;20481;-73
2021/01/05 23:40:59;;;;;;;125.65;37.88;;;;;;;;;;8144435;28;20420;-73
2021/01/05 23:45:04;;;;;;;166.20;46.58;;;;;;;;;;8144283;28;20054;-73
2021/01/05 23:49:08;;;;;;;140.30;42.85;;;;;;;;;;8161427;28;20085;-74
2021/01/05 23:53:13;;;;;;;176.63;48.08;;;;;;;;;;8174775;28;20480;-73
2021/01/05 23:57:16;;;;;;;151.45;44.90;;;;;;;;;;8192642;28;20480;-74
